page 7426 of 1004621 registered users

eBook PostsUsers

  1. 0quail60rocket registered @ 2013-05-18 10:55:29, last login @ 2013-05-18 10:55:29
  2. 0seafender1 registered @ 2013-05-18 10:56:08, last login @ 2013-05-18 10:56:08
  3. 0sugartoilet14 registered @ 2013-05-18 10:56:10, last login @ 2013-05-18 10:56:10
  4. 0chard03pruner registered @ 2013-05-18 10:56:48, last login @ 2013-05-18 10:56:48
  5. 0dollarnation26 registered @ 2013-05-18 10:57:50, last login @ 2013-05-18 10:57:50
  6. 0modemguide12 registered @ 2013-05-18 10:57:56, last login @ 2013-05-18 10:57:56
  7. 0denimblouse8 registered @ 2013-05-18 10:57:58, last login @ 2013-05-18 10:57:58
  8. 0shrine8stream registered @ 2013-05-18 10:58:22, last login @ 2013-05-18 10:58:22
  9. 0beauty09death registered @ 2013-05-18 10:59:31, last login @ 2013-05-18 10:59:31
  10. 0test88roof registered @ 2013-05-18 11:00:10, last login @ 2013-05-18 11:00:10
  11. 0quiltfriday8 registered @ 2013-05-18 11:01:18, last login @ 2013-05-18 11:01:18
  12. 0toastatm0 registered @ 2013-05-18 11:01:58, last login @ 2013-05-18 11:01:58
  13. 0carkick55 registered @ 2013-05-18 11:03:09, last login @ 2013-05-18 11:03:09
  14. 0cost12lace registered @ 2013-05-18 11:03:47, last login @ 2013-05-18 11:03:47
  15. 0closet7skill registered @ 2013-05-18 11:04:07, last login @ 2013-05-18 11:04:07
  16. 0point47blow registered @ 2013-05-18 11:04:16, last login @ 2013-05-18 11:04:16
  17. 0decade10path registered @ 2013-05-18 11:04:35, last login @ 2013-05-18 11:04:35
  18. 0rotate45detail registered @ 2013-05-18 11:04:41, last login @ 2013-05-18 11:04:41
  19. 0butane0octave registered @ 2013-05-18 11:07:16, last login @ 2013-05-18 11:07:16
  20. 0bottle17domain registered @ 2013-05-18 11:08:21, last login @ 2013-05-18 11:08:21
  21. 0denim69taxi registered @ 2013-05-18 11:08:45, last login @ 2013-05-18 11:08:45
  22. 0lilacfelony12 registered @ 2013-05-18 11:11:33, last login @ 2013-05-18 11:11:33
  23. 0subway1litter registered @ 2013-05-18 11:11:42, last login @ 2013-05-18 11:11:42
  24. 0node2desire registered @ 2013-05-18 11:11:49, last login @ 2013-05-18 11:42:14
  25. 0enemy48waiter registered @ 2013-05-18 11:13:47, last login @ 2013-05-18 11:13:47
  26. 0picklebush6 registered @ 2013-05-18 11:14:03, last login @ 2013-05-18 11:14:03
  27. 0bushammer4 registered @ 2013-05-18 11:14:22, last login @ 2013-05-18 11:14:22
  28. 0rublocust8 registered @ 2013-05-18 11:14:37, last login @ 2013-05-18 11:49:59
  29. 0rootcolor82 registered @ 2013-05-18 11:15:07, last login @ 2013-05-18 11:15:07
  30. 0weeder9german registered @ 2013-05-18 11:16:36, last login @ 2013-05-18 11:16:36
  31. 0karen78thing registered @ 2013-05-18 11:16:44, last login @ 2013-05-18 11:16:44
  32. 0oanhhau2004 registered @ 2013-05-18 11:17:28, last login @ 2013-05-18 11:17:28
  33. 0beach76need registered @ 2013-05-18 11:18:12, last login @ 2013-05-18 11:18:12
  34. 0iraqpolish4 registered @ 2013-05-18 11:22:07, last login @ 2013-05-18 11:22:07
  35. 0period5vest registered @ 2013-05-18 11:24:01, last login @ 2013-05-18 11:24:01
  36. 0berryjaguar9 registered @ 2013-05-18 11:25:02, last login @ 2013-05-18 11:46:14
  37. 0copyfront49 registered @ 2013-05-18 11:25:12, last login @ 2013-05-18 11:25:12
  38. 0locket2mouse registered @ 2013-05-18 11:25:17, last login @ 2013-05-18 11:25:17
  39. 0july4effect registered @ 2013-05-18 11:25:50, last login @ 2013-05-18 11:25:50
  40. 0dew1condor registered @ 2013-05-18 11:26:06, last login @ 2013-05-18 11:26:06
  41. 0frog64fuel registered @ 2013-05-18 11:27:12, last login @ 2013-05-18 11:27:12
  42. 0easyfunding5 registered @ 2013-05-18 11:29:23, last login @ 2013-05-18 11:29:23
  43. 0flare06drill registered @ 2013-05-18 11:30:43, last login @ 2013-05-18 11:30:43
  44. 0porchturkey7 registered @ 2013-05-18 11:30:52, last login @ 2013-05-18 11:30:52
  45. 0tempocheque9 registered @ 2013-05-18 11:34:08, last login @ 2013-05-18 11:34:08
  46. 0arm83leek registered @ 2013-05-18 11:34:43, last login @ 2013-05-18 11:34:43
  47. 0domainexpert38 registered @ 2013-05-18 11:35:16, last login @ 2013-05-18 11:35:16
  48. 0pointtomato6 registered @ 2013-05-18 11:36:23, last login @ 2013-05-18 11:36:23
  49. 0icicle2honey registered @ 2013-05-18 11:37:59, last login @ 2013-05-18 11:37:59
  50. 0goosesing8 registered @ 2013-05-18 11:38:01, last login @ 2013-05-18 11:38:01
  51. 0voiceboot24 registered @ 2013-05-18 11:38:19, last login @ 2013-05-18 11:38:19
  52. 0snakesoda94 registered @ 2013-05-18 11:39:58, last login @ 2013-05-18 11:39:58
  53. 0fork6coffee registered @ 2013-05-18 11:40:11, last login @ 2013-05-18 11:40:11
  54. 0melody8voice registered @ 2013-05-18 11:41:35, last login @ 2013-05-18 11:41:35
  55. 0picklestream85 registered @ 2013-05-18 11:41:49, last login @ 2013-05-18 11:41:49
  56. 0wax66brain registered @ 2013-05-18 11:42:10, last login @ 2013-05-18 11:42:10
  57. 0pianoera7 registered @ 2013-05-18 11:42:13, last login @ 2013-05-18 11:42:13
  58. 0pandaaugust65 registered @ 2013-05-18 11:42:38, last login @ 2013-05-18 11:42:38
  59. 0Baniunsenny registered @ 2013-05-18 11:42:52, last login @ 2013-05-18 11:42:52
  60. 0vise17wealth registered @ 2013-05-18 11:44:44, last login @ 2013-05-18 11:44:44
  61. 0ceekay registered @ 2013-05-18 11:45:43, last login @ 2013-05-18 11:45:43
  62. 0authorlinen05 registered @ 2013-05-18 11:50:17, last login @ 2013-05-18 11:50:17
  63. 0lionstick68 registered @ 2013-05-18 11:50:58, last login @ 2013-05-18 11:50:58
  64. 0tennisdigger1 registered @ 2013-05-18 11:51:46, last login @ 2013-05-18 11:51:46
  65. 0middleboot80 registered @ 2013-05-18 11:52:05, last login @ 2013-05-18 11:52:05
  66. 0searchcarp9 registered @ 2013-05-18 11:52:49, last login @ 2013-05-18 11:52:49
  67. 0summerraven3 registered @ 2013-05-18 11:53:36, last login @ 2013-05-18 11:53:36
  68. 0easybizfunding13 registered @ 2013-05-18 11:53:48, last login @ 2013-05-18 11:53:48
  69. 0NeskOrakabs registered @ 2013-05-18 11:56:41, last login @ 2013-05-18 11:56:41
  70. 0hoodbengal8 registered @ 2013-05-18 11:57:13, last login @ 2013-05-18 11:57:13
  71. 0callfrost7 registered @ 2013-05-18 11:57:47, last login @ 2013-05-18 11:57:47
  72. 0agenda20text registered @ 2013-05-18 11:58:15, last login @ 2013-05-18 11:58:15
  73. 0man9hair registered @ 2013-05-18 11:59:10, last login @ 2013-05-18 11:59:10
  74. 0storyhat6 registered @ 2013-05-18 12:01:16, last login @ 2013-05-18 12:01:16
  75. 0pimplecolony22 registered @ 2013-05-18 12:04:32, last login @ 2013-05-18 12:04:32
  76. 0sushimoney8 registered @ 2013-05-18 12:04:33, last login @ 2013-05-18 12:04:33
  77. 0tennis54hall registered @ 2013-05-18 12:06:54, last login @ 2013-05-18 12:06:54
  78. 0forceheight2 registered @ 2013-05-18 12:07:17, last login @ 2013-05-18 12:07:17
  79. 0male4town registered @ 2013-05-18 12:07:49, last login @ 2013-05-18 12:28:07
  80. 0pajamauganda5 registered @ 2013-05-18 12:12:22, last login @ 2013-05-18 12:12:22
  81. 0single7person registered @ 2013-05-18 12:13:04, last login @ 2013-05-18 12:13:04
  82. 0piano4team registered @ 2013-05-18 12:14:40, last login @ 2013-05-18 12:14:40
  83. 0gallonsled20 registered @ 2013-05-18 12:15:18, last login @ 2013-05-18 12:15:18
  84. 0ariesmuscle99 registered @ 2013-05-18 12:16:19, last login @ 2013-05-18 12:16:19
  85. 0cotton6wood registered @ 2013-05-18 12:16:21, last login @ 2013-05-18 12:42:47
  86. 0maria1ear registered @ 2013-05-18 12:17:18, last login @ 2013-05-18 12:17:18
  87. 0weight32mosque registered @ 2013-05-18 12:19:25, last login @ 2013-05-18 12:58:33
  88. 0browfrog79 registered @ 2013-05-18 12:20:03, last login @ 2013-05-18 12:20:03
  89. 0bananaruth58 registered @ 2013-05-18 12:20:32, last login @ 2013-05-18 12:20:32
  90. 0bomber48dryer registered @ 2013-05-18 12:21:26, last login @ 2013-05-18 12:21:26
  91. 0cattleplain04 registered @ 2013-05-18 12:22:25, last login @ 2013-05-18 12:22:25
  92. 0breathnight9 registered @ 2013-05-18 12:23:42, last login @ 2013-05-18 12:23:42
  93. 0FrancisKent registered @ 2013-05-18 12:23:51, last login @ 2013-05-18 12:23:51
  94. 0angelcalling registered @ 2013-05-18 12:27:04, last login @ 2013-05-18 12:27:04
  95. 0catsupolive49 registered @ 2013-05-18 12:27:18, last login @ 2013-05-18 12:27:18
  96. 0lionwillow3 registered @ 2013-05-18 12:28:29, last login @ 2013-05-18 12:28:29
  97. 0kittyash6 registered @ 2013-05-18 12:28:50, last login @ 2013-05-18 12:28:50
  98. 0flute0star registered @ 2013-05-18 12:29:07, last login @ 2013-05-18 12:29:07
  99. 0salarycan68 registered @ 2013-05-18 12:29:42, last login @ 2013-05-18 12:29:42
  100. 0jaguarbanjo2 registered @ 2013-05-18 12:30:39, last login @ 2013-05-18 12:30:39
  101. 0enemy2hell registered @ 2013-05-18 12:32:06, last login @ 2013-05-18 12:32:06

More...

[7436] [7435] [7434] [7433] [7432] [7431] [7430] [7429] [7428] [7427] [7426] [7425] [7424] [7423] [7422] [7421] [7420] [7419] [7418] [7417] ...[1]
Back to Top